Aviation Digital Data Service (ADDS)

Output produced by METARs form (2012 UTC 25 May 2017)
found at http://www.aviationweather.gov/adds/metars/
 
KBFD 251953Z AUTO 26005KT 10SM FEW009 BKN023 OVC075 15/13 A2950 RMK AO2 RAE36 SLP983 P0000 T01500128
KBFD 251938Z AUTO VRB05KT 10SM SCT009 BKN015 OVC022 14/13 A2950 RMK AO2 RAE36 P0000 T01390133
KBFD 251934Z AUTO 21007KT 10SM -RA BKN009 BKN013 OVC045 14/13 A2951 RMK AO2 P0000 T01390128
KBFD 251923Z AUTO VRB05KT 7SM -RA SCT009 BKN014 OVC042 14/13 A2950 RMK AO2 P0000 T01390133
KBFD 251903Z AUTO VRB05KT 4SM -RA BR SCT009 BKN015 OVC031 14/13 A2951 RMK AO2 P0000 T01390133
KBFD 251900Z AUTO 21008KT 2 1/2SM -RA BR FEW007 BKN013 OVC029 14/13 A2951 RMK AO2 VIS 1 3/4V5 P0000 T01390133
KBFD 251853Z AUTO VRB06KT 2 1/2SM -RA BR SCT010 BKN015 OVC021 14/13 A2951 RMK AO2 RAE02B44 SLP988 P0001 T01390133
KBFD 251836Z AUTO VRB06KT 10SM BKN011 OVC015 14/13 A2951 RMK AO2 RAE02 P0000 T01390128
KBFD 251753Z AUTO 16005KT 5SM -RA BR BKN009 OVC013 13/13 A2951 RMK AO2 SLP987 P0000 60047 T01330133 10133 20106 50001
KBFD 251653Z AUTO 15007KT 3SM -RA BR BKN007 OVC011 13/13 A2951 RMK AO2 SLP988 P0001 T01280128
KBFD 251648Z AUTO 15007KT 3SM -RA BR BKN007 OVC011 13/13 A2951 RMK AO2 P0001
KBFD 251635Z AUTO 16008G16KT 2SM -RA BR BKN008 OVC016 12/12 A2951 RMK AO2 P0001 T01220122
KBFD 251553Z AUTO 14010KT 5SM -RA BR BKN007 OVC014 12/12 A2951 RMK AO2 SLP987 P0002 T01220122
KBFD 251520Z AUTO 13010KT 2 1/2SM -RA BR OVC009 12/12 A2951 RMK AO2 P0001 T01170117
KBFD 251507Z AUTO 13010KT 1 3/4SM -RA BR OVC009 12/12 A2951 RMK AO2 P0001 T01170117
KBFD 251453Z AUTO 12009KT 10SM -RA BKN009 OVC014 12/11 A2952 RMK AO2 SLP990 P0006 60044 T01170111 56007
KBFD 251353Z AUTO 12007KT 8SM -RA BKN007 BKN010 OVC040 11/11 A2952 RMK AO2 SLP991 P0010 T01110111
KBFD 251349Z AUTO 12007KT 7SM -RA BKN010 BKN036 OVC043 11/11 A2953 RMK AO2 P0010
KBFD 251258Z AUTO 13005KT 3SM RA BR FEW004 BKN032 OVC042 11/11 A2954 RMK AO2 P0001 T01060106
KBFD 251253Z AUTO 13005KT 2SM RA BR FEW004 BKN028 OVC044 11/11 A2954 RMK AO2 SLP996 P0028 T01060106
KBFD 251244Z AUTO 13005KT 1 3/4SM +RA BR FEW005 BKN023 OVC041 11/11 A2954 RMK AO2 P0024 T01060106
KBFD 251232Z AUTO 11005KT 2SM +RA BR SCT009 BKN018 OVC038 11/11 A2954 RMK AO2 P0017 T01060106
KBFD 251223Z AUTO 13006KT 1 3/4SM +RA BR BKN007 OVC013 11/11 A2954 RMK AO2 P0013 T01060106
KBFD 251208Z AUTO 13005KT 2 1/2SM RA BR BKN007 OVC013 11/11 A2953 RMK AO2 P0006 T01060106
KBFD 251153Z AUTO 09004KT 1 1/2SM +RA BR BKN007 BKN011 OVC017 11/11 A2953 RMK AO2 SLP991 P0021 60052 70078 T01060106 10122 20106 58010
KBFD 251150Z AUTO 10007KT 1 3/4SM +RA BR OVC009 11/11 A2953 RMK AO2 P0020
KBFD 251053Z AUTO 10009KT 5SM RA BR BKN008 OVC011 11/11 A2955 RMK AO2 SLP997 P0010 T01060106
KBFD 251050Z AUTO 11009KT 4SM RA BR OVC011 11/11 A2955 RMK AO2 P0009
KBFD 251012Z AUTO 11008KT 7SM -RA OVC008 11/11 A2955 RMK AO2 CIG 007V015 P0002 T01060106
KBFD 250953Z AUTO 11012G18KT 8SM -RA OVC010 11/10 A2956 RMK AO2 CIG 007V014 SLP001 P0008 T01060100
KBFD 250853Z AUTO 12010G18KT 5SM RA BR BKN010 OVC015 11/11 A2958 RMK AO2 CIG 006V012 SLP010 P0009 60013 T01060106 58010
KBFD 250753Z AUTO 12011G17KT 9SM -RA BKN011 OVC015 11/11 A2959 RMK AO2 CIG 007V012 SLP013 P0003 T01110106
KBFD 250653Z AUTO 14011G20KT 8SM -RA OVC014 12/11 A2961 RMK AO2 SLP019 P0001 T01170111
KBFD 250614Z AUTO 13013KT 8SM -RA BKN010 OVC015 12/12 A2961 RMK AO2 CIG 006V013 P0000 T01220117
KBFD 250553Z AUTO 14010G17KT 4SM -RA BR OVC009 12/12 A2962 RMK AO2 CIG 005V015 SLP019 P0014 60026 T01220122 10161 20122 56017
KBFD 250534Z AUTO 13010KT 4SM -RA BR BKN007 BKN011 OVC016 12/12 A2962 RMK AO2 CIG 005V009 P0011 T01220122
KBFD 250524Z AUTO 13010KT 3SM RA BR SCT007 OVC011 12/12 A2963 RMK AO2 P0009 T01220122
KBFD 250512Z AUTO 13011KT 3SM RA BR BKN007 OVC013 12/12 A2963 RMK AO2 CIG 005V011 P0006 T01220122
KBFD 250509Z AUTO 13011KT 2 1/2SM +RA BR BKN007 OVC013 12/12 A2963 RMK AO2 P0006 T01220122
KBFD 250453Z AUTO 13011KT 4SM RA BR OVC012 12/12 A2963 RMK AO2 SLP025 P0005 T01220122 402060094
KBFD 250442Z AUTO 13010KT 5SM -RA BR SCT011 BKN014 OVC044 12/12 A2963 RMK AO2 P0003 T01220122
KBFD 250422Z AUTO 12010KT 6SM -RA BR BKN020 BKN046 OVC090 12/12 A2964 RMK AO2 CIG 012V026 P0001 T01220117
KBFD 250353Z AUTO 12010KT 9SM -RA FEW029 OVC095 13/12 A2964 RMK AO2 SLP029 P0004 T01280117
KBFD 250253Z AUTO 13009KT 6SM -RA BR BKN030 OVC046 13/12 A2967 RMK AO2 RAB0158 SLP041 P0003 60003 T01280122 53005
KBFD 250153Z AUTO 14011G23KT 10SM OVC033 16/10 A2966 RMK AO2 SLP036 T01560100
KBFD 250053Z AUTO 14006KT 10SM BKN037 16/09 A2966 RMK AO2 SLP036 T01610094
KBFD 242353Z AUTO 13010G23KT 10SM BKN070 17/09 A2965 RMK AO2 SLP034 T01720089 10206 20172 57005
KBFD 242253Z AUTO 15016G22KT 10SM FEW045 SCT070 BKN085 18/09 A2966 RMK AO2 SLP037 T01830089
KBFD 242153Z AUTO 14009G19KT 10SM OVC090 19/08 A2966 RMK AO2 SLP037 T01890083
KBFD 242053Z AUTO 14007KT 10SM BKN050 OVC095 19/08 A2967 RMK AO2 SLP039 T01940083 58003
KBFD 241953Z AUTO 15009G17KT 10SM BKN050 OVC110 19/08 A2967 RMK AO2 SLP041 T01940083
KBFD 241853Z AUTO 13013KT 10SM FEW049 BKN055 19/09 A2968 RMK AO2 SLP041 T01940089
KBFD 241753Z AUTO 11015G23KT 10SM FEW046 19/09 A2968 RMK AO2 SLP041 T01940094 10194 20122 56015
KBFD 241653Z AUTO 14007KT 10SM FEW039 19/10 A2969 RMK AO2 SLP045 T01890100
KBFD 241553Z AUTO 17008G17KT 10SM BKN037 18/10 A2971 RMK AO2 SLP052 T01780100
KBFD 241453Z AUTO 16008G15KT 10SM BKN037 OVC080 15/10 A2972 RMK AO2 SLP059 T01500100 50000
KBFD 241353Z AUTO 15008KT 10SM BKN033 BKN120 14/10 A2972 RMK AO2 SLP059 T01390100
KBFD 241253Z AUTO 13006KT 10SM OVC036 13/09 A2973 RMK AO2 SLP060 T01280094
KBFD 241153Z AUTO 14007KT 10SM BKN038 BKN100 12/09 A2972 RMK AO2 SLP058 60000 7//// T01220094 10122 20094 53003
KBFD 241053Z AUTO 14004KT 10SM SCT035 BKN110 11/09 A2972 RMK AO2 RAB0954E03 SLP057 P0000 T01060089
KBFD 240953Z AUTO 00000KT 10SM SCT038 OVC120 11/08 A2971 RMK AO2 SLP053 T01060083
KBFD 240853Z AUTO 13003KT 10SM FEW034 OVC120 10/08 A2971 RMK AO2 SLP053 T01000083 58010